Time;durP1;ratioP1;P1;durP2;ratioP2;P2;SDS_P1;SDS_P2;PMS_P1;PMS_P2;Temp;Humidity;BMP_temperature;BMP_pressure;BME280_temperature;BME280_humidity;BME280_pressure;Samples;Min_cycle;Max_cycle;Signal;HPM_P1;HPM_P2
2022/12/02 00:02:34;;;;;;;6.97;3.38;;;28.40;85.80;;;;;;5115885;28;20377;-43
2022/12/02 00:05:14;;;;;;;7.35;4.18;;;28.40;85.30;;;;;;5131480;27;20339;-48
2022/12/02 00:07:42;;;;;;;6.93;4.47;;;28.30;85.40;;;;;;5106139;28;20039;-49
2022/12/02 00:10:29;;;;;;;8.75;4.38;;;28.30;85.80;;;;;;5123330;28;20031;-44
2022/12/02 00:13:04;;;;;;;16.00;4.43;;;28.30;86.30;;;;;;5122861;28;20042;-48
2022/12/02 00:15:43;;;;;;;7.40;4.10;;;28.30;86.50;;;;;;5123471;27;20429;-44
2022/12/02 00:18:15;;;;;;;12.70;3.65;;;28.30;86.80;;;;;;5123202;27;20319;-46
2022/12/02 00:20:43;;;;;;;17.23;3.60;;;28.20;87.00;;;;;;5126390;27;20020;-44
2022/12/02 00:23:11;;;;;;;14.07;3.97;;;28.20;87.10;;;;;;5108540;28;20328;-44
2022/12/02 00:25:38;;;;;;;17.63;4.65;;;28.20;87.40;;;;;;5106120;28;20045;-49
2022/12/02 00:28:04;;;;;;;12.85;4.10;;;28.20;87.50;;;;;;5124820;28;20038;-50
2022/12/02 00:30:31;;;;;;;16.45;4.30;;;28.20;87.50;;;;;;5117602;27;20031;-47
2022/12/02 00:32:57;;;;;;;13.05;4.07;;;28.10;87.60;;;;;;5123300;28;20047;-49
2022/12/02 00:35:25;;;;;;;14.05;4.50;;;28.10;87.90;;;;;;5123360;28;20024;-47
2022/12/02 00:37:52;;;;;;;12.48;5.00;;;28.10;88.40;;;;;;5113578;28;20427;-51
2022/12/02 00:40:19;;;;;;;17.40;5.85;;;28.00;88.80;;;;;;5112761;28;20107;-49
2022/12/02 00:42:46;;;;;;;17.48;6.43;;;27.90;89.10;;;;;;5127086;27;20028;-45
2022/12/02 00:47:58;;;;;;;16.85;5.00;;;27.90;89.80;;;;;;5104355;28;20027;-41
2022/12/02 00:50:25;;;;;;;12.13;3.50;;;27.90;89.60;;;;;;5128457;27;20039;-42
2022/12/02 00:52:52;;;;;;;17.52;4.38;;;27.90;89.60;;;;;;5144254;27;20019;-43
2022/12/02 00:55:19;;;;;;;10.95;2.90;;;27.90;89.50;;;;;;5144605;27;20023;-43
2022/12/02 00:57:48;;;;;;;9.20;3.00;;;27.90;89.30;;;;;;5143543;27;20022;-47
2022/12/02 01:00:15;;;;;;;11.98;3.28;;;27.90;89.30;;;;;;5143139;27;20043;-44
2022/12/02 01:02:41;;;;;;;23.10;3.97;;;28.00;89.30;;;;;;5142703;27;20376;-45
2022/12/02 01:05:09;;;;;;;17.38;4.43;;;28.00;89.40;;;;;;5125371;27;20094;-47
2022/12/02 01:07:35;;;;;;;15.20;4.47;;;28.00;89.20;;;;;;5121084;28;20027;-46
2022/12/02 01:10:05;;;;;;;12.80;4.32;;;27.90;89.10;;;;;;5111623;28;20083;-43
2022/12/02 01:12:32;;;;;;;8.38;3.70;;;27.80;89.50;;;;;;5102247;28;20028;-49
2022/12/02 01:14:58;;;;;;;15.38;3.63;;;27.80;89.60;;;;;;5118940;28;20075;-45
2022/12/02 01:17:25;;;;;;;13.60;3.60;;;27.70;89.80;;;;;;5122666;28;20050;-46
2022/12/02 01:19:51;;;;;;;17.25;4.40;;;27.70;90.00;;;;;;5124337;28;20061;-48
2022/12/02 01:22:18;;;;;;;19.67;4.13;;;27.70;89.80;;;;;;5121314;28;20350;-44
2022/12/02 01:24:45;;;;;;;17.95;4.15;;;27.60;90.00;;;;;;5124217;28;20196;-49
2022/12/02 01:27:11;;;;;;;35.55;6.28;;;27.70;90.00;;;;;;5123641;28;20012;-43
2022/12/02 01:29:38;;;;;;;44.50;7.05;;;27.70;89.90;;;;;;5121495;28;20018;-44
2022/12/02 01:32:04;;;;;;;46.08;7.85;;;27.70;90.10;;;;;;5123511;28;20031;-43
2022/12/02 01:34:31;;;;;;;40.83;8.15;;;27.60;90.00;;;;;;5124060;28;20099;-46
2022/12/02 01:36:57;;;;;;;48.08;7.38;;;27.60;90.00;;;;;;5122998;28;20219;-48
2022/12/02 01:39:24;;;;;;;46.60;8.25;;;27.60;90.10;;;;;;5123935;28;20016;-42
2022/12/02 01:41:51;;;;;;;30.13;7.60;;;27.60;90.00;;;;;;5121260;28;20203;-45
2022/12/02 01:44:18;;;;;;;32.42;7.70;;;27.60;90.00;;;;;;5121013;28;20019;-48
2022/12/02 01:46:45;;;;;;;38.22;7.13;;;27.60;90.00;;;;;;5123494;28;20015;-47
2022/12/02 01:49:11;;;;;;;34.60;7.10;;;27.60;90.10;;;;;;5123378;28;20051;-50
2022/12/02 01:51:38;;;;;;;23.05;6.47;;;27.60;90.10;;;;;;5120606;28;20023;-43
2022/12/02 01:54:05;;;;;;;18.85;6.38;;;27.60;90.20;;;;;;5123300;28;20012;-48
2022/12/02 01:56:31;;;;;;;26.75;7.18;;;27.60;90.20;;;;;;5123332;28;20024;-39
2022/12/02 01:58:58;;;;;;;23.08;7.25;;;27.60;90.10;;;;;;5116217;28;20036;-43
2022/12/02 02:01:30;;;;;;;16.90;6.50;;;27.70;90.00;;;;;;5079519;28;20035;-43
2022/12/02 02:04:00;;;;;;;20.38;6.85;;;27.70;90.00;;;;;;5102629;28;20398;-42
2022/12/02 02:06:30;;;;;;;22.83;6.28;;;27.60;90.30;;;;;;5102982;28;20032;-48
2022/12/02 02:08:57;;;;;;;17.10;5.90;;;27.50;90.40;;;;;;5106391;28;20024;-43
2022/12/02 02:11:25;;;;;;;16.48;5.40;;;27.40;90.50;;;;;;5106677;28;20016;-46
2022/12/02 02:13:52;;;;;;;11.68;4.70;;;27.40;90.50;;;;;;5106701;28;20020;-40
2022/12/02 02:16:20;;;;;;;11.52;5.25;;;27.40;90.60;;;;;;5104835;28;20087;-43
2022/12/02 02:18:47;;;;;;;10.50;5.03;;;27.40;90.60;;;;;;5107298;28;20074;-42
2022/12/02 02:21:20;;;;;;;15.15;5.05;;;27.40;90.70;;;;;;5101552;28;20031;-42
2022/12/02 02:23:47;;;;;;;10.30;4.78;;;27.40;90.70;;;;;;5095747;28;20028;-46
2022/12/02 02:26:14;;;;;;;8.80;4.97;;;27.40;90.70;;;;;;5093482;28;20036;-53
2022/12/02 02:28:41;;;;;;;10.43;5.20;;;27.40;90.80;;;;;;5088796;28;20212;-50
2022/12/02 02:31:08;;;;;;;10.07;5.20;;;27.30;90.80;;;;;;5107188;28;20149;-46
2022/12/02 02:33:35;;;;;;;11.10;5.30;;;27.30;90.80;;;;;;5089035;28;20022;-46
2022/12/02 02:36:04;;;;;;;8.68;4.88;;;27.30;90.90;;;;;;5107674;28;20039;-42
2022/12/02 02:38:31;;;;;;;9.30;4.45;;;27.30;91.00;;;;;;5083580;28;20271;-42
2022/12/02 02:40:58;;;;;;;10.77;4.30;;;27.30;91.10;;;;;;5103709;28;20083;-44
2022/12/02 02:43:26;;;;;;;7.13;3.90;;;27.30;91.20;;;;;;5106219;28;20357;-45
2022/12/02 02:45:54;;;;;;;8.98;4.07;;;27.30;91.30;;;;;;5106372;28;20036;-41
2022/12/02 02:48:22;;;;;;;8.13;3.50;;;27.30;91.40;;;;;;5106934;28;20326;-43
2022/12/02 02:50:55;;;;;;;8.32;3.15;;;27.30;91.50;;;;;;5106954;28;20031;-46
2022/12/02 02:53:24;;;;;;;8.07;3.17;;;27.30;91.50;;;;;;5107321;28;20242;-45
2022/12/02 02:55:51;;;;;;;6.40;3.17;;;27.30;91.60;;;;;;5106804;28;20300;-45
2022/12/02 02:58:21;;;;;;;5.82;3.00;;;27.30;91.60;;;;;;5099791;28;20080;-45
2022/12/02 03:00:56;;;;;;;6.90;2.70;;;27.30;91.60;;;;;;5116013;27;20079;-43
2022/12/02 03:03:25;;;;;;;9.23;3.30;;;27.30;91.70;;;;;;5114176;28;20041;-56
2022/12/02 03:05:55;;;;;;;4.97;2.38;;;27.30;91.80;;;;;;5109521;28;20055;-40
2022/12/02 03:08:23;;;;;;;5.60;2.50;;;27.30;91.80;;;;;;5105992;28;20020;-44
2022/12/02 03:10:52;;;;;;;4.18;2.08;;;27.30;91.90;;;;;;5105806;28;20036;-45
2022/12/02 03:13:19;;;;;;;7.07;3.28;;;27.30;91.90;;;;;;5118794;27;20260;-44
2022/12/02 03:15:45;;;;;;;9.27;3.78;;;27.30;91.80;;;;;;5119297;27;20368;-47
2022/12/02 03:18:12;;;;;;;5.88;3.00;;;27.30;91.70;;;;;;5106137;28;20056;-43
2022/12/02 03:20:39;;;;;;;7.07;3.05;;;27.40;91.70;;;;;;5105989;28;20020;-48
2022/12/02 03:23:05;;;;;;;6.45;2.42;;;27.40;91.60;;;;;;5105851;28;20055;-40
2022/12/02 03:25:32;;;;;;;7.00;2.95;;;27.50;91.60;;;;;;5105929;28;20069;-46
2022/12/02 03:27:59;;;;;;;7.65;2.50;;;27.40;91.60;;;;;;5105701;28;20363;-43
2022/12/02 03:30:25;;;;;;;8.00;2.50;;;27.40;91.60;;;;;;5087944;28;20039;-45
2022/12/02 03:32:52;;;;;;;5.68;2.78;;;27.40;91.60;;;;;;5116322;28;20016;-41
2022/12/02 03:35:19;;;;;;;5.55;2.53;;;27.40;91.60;;;;;;5105314;28;20371;-42
2022/12/02 03:37:46;;;;;;;6.05;2.35;;;27.40;91.60;;;;;;5110515;28;20051;-40
2022/12/02 03:40:14;;;;;;;4.93;2.70;;;27.40;91.60;;;;;;5118419;28;20049;-42
2022/12/02 03:42:41;;;;;;;6.22;2.58;;;27.40;91.70;;;;;;5129099;27;20035;-44
2022/12/02 03:45:08;;;;;;;8.68;5.47;;;27.30;91.60;;;;;;5133981;27;20065;-43
2022/12/02 03:47:35;;;;;;;9.15;3.88;;;27.30;91.60;;;;;;5112394;28;20032;-42
2022/12/02 03:50:03;;;;;;;9.30;3.53;;;27.30;91.60;;;;;;5114500;28;20032;-44
2022/12/02 03:52:30;;;;;;;6.72;4.43;;;27.30;91.70;;;;;;5107483;28;20080;-42
2022/12/02 03:54:57;;;;;;;7.03;4.53;;;27.30;91.70;;;;;;5113575;28;20317;-39
2022/12/02 03:57:24;;;;;;;6.45;3.60;;;27.30;91.80;;;;;;5109366;28;20022;-44
2022/12/02 03:59:50;;;;;;;9.57;3.10;;;27.20;91.90;;;;;;5114157;28;20217;-39
2022/12/02 04:02:17;;;;;;;5.93;2.72;;;27.20;91.90;;;;;;5105209;28;20046;-41
2022/12/02 04:04:44;;;;;;;11.00;6.18;;;27.10;92.00;;;;;;5105456;28;20016;-51
2022/12/02 04:07:10;;;;;;;5.03;3.17;;;27.10;92.10;;;;;;5087151;28;20076;-53
2022/12/02 04:09:37;;;;;;;5.95;2.42;;;27.10;92.00;;;;;;5105334;28;20203;-52
2022/12/02 04:12:03;;;;;;;4.22;2.30;;;27.10;92.10;;;;;;5107329;28;20279;-42
2022/12/02 04:14:30;;;;;;;7.60;4.22;;;27.00;92.00;;;;;;5114294;28;20032;-51
2022/12/02 04:16:56;;;;;;;6.32;2.53;;;27.00;92.10;;;;;;5105024;28;20030;-38
2022/12/02 04:19:23;;;;;;;7.45;2.55;;;27.00;92.00;;;;;;5105032;28;20031;-40
2022/12/02 04:21:50;;;;;;;7.30;3.90;;;27.00;92.40;;;;;;5106854;28;20012;-45
2022/12/02 04:24:16;;;;;;;5.18;3.40;;;27.00;92.10;;;;;;5116257;28;20024;-40
2022/12/02 04:26:43;;;;;;;5.30;3.17;;;27.00;92.10;;;;;;5104593;28;20019;-42
2022/12/02 04:29:10;;;;;;;5.32;2.47;;;27.10;92.10;;;;;;5104192;28;20079;-42
2022/12/02 04:31:36;;;;;;;11.80;3.70;;;27.00;92.20;;;;;;5104883;28;20095;-41
2022/12/02 04:34:04;;;;;;;5.50;2.63;;;27.10;92.20;;;;;;5104761;28;20048;-42
2022/12/02 04:36:30;;;;;;;6.68;2.60;;;27.10;92.20;;;;;;5104603;28;20091;-42
2022/12/02 04:38:57;;;;;;;7.38;3.33;;;27.10;92.20;;;;;;5104769;28;20024;-40
2022/12/02 04:41:24;;;;;;;8.95;3.33;;;27.00;92.10;;;;;;5107561;28;20016;-40
2022/12/02 04:43:50;;;;;;;6.60;2.75;;;27.00;92.10;;;;;;5112433;28;20082;-43
2022/12/02 04:46:17;;;;;;;4.28;2.30;;;27.00;92.10;;;;;;5104465;28;20065;-45
2022/12/02 04:48:43;;;;;;;7.82;2.60;;;27.00;92.30;;;;;;5104392;28;20193;-48
2022/12/02 04:51:10;;;;;;;3.50;2.47;;;26.90;92.20;;;;;;5106391;28;20085;-41
2022/12/02 04:53:36;;;;;;;6.15;2.80;;;26.90;92.20;;;;;;5113356;28;20079;-45
2022/12/02 04:56:03;;;;;;;6.75;2.45;;;26.90;92.30;;;;;;5104977;27;20370;-48
2022/12/02 04:58:29;;;;;;;10.75;3.05;;;26.90;92.30;;;;;;5106084;28;20016;-46
2022/12/02 05:00:56;;;;;;;6.55;2.50;;;26.80;92.30;;;;;;5124673;28;20100;-45
2022/12/02 05:03:23;;;;;;;7.60;3.13;;;26.90;92.40;;;;;;5113327;28;20035;-49
2022/12/02 05:05:51;;;;;;;3.50;2.25;;;26.80;92.40;;;;;;5104013;28;20019;-44
2022/12/02 05:08:18;;;;;;;4.00;2.33;;;26.80;92.40;;;;;;5104053;28;20077;-45
2022/12/02 05:10:44;;;;;;;6.07;2.10;;;26.80;92.50;;;;;;5107427;28;20199;-42
2022/12/02 05:13:11;;;;;;;7.45;2.30;;;26.80;92.50;;;;;;5118535;28;20059;-42
2022/12/02 05:15:38;;;;;;;4.53;2.17;;;26.80;92.50;;;;;;5122663;28;20061;-53
2022/12/02 05:18:04;;;;;;;5.82;2.13;;;26.80;92.60;;;;;;5090318;28;20035;-48
2022/12/02 05:20:31;;;;;;;6.03;2.05;;;26.80;92.60;;;;;;5110708;28;20028;-54
2022/12/02 05:22:57;;;;;;;6.45;2.33;;;26.80;92.60;;;;;;5114851;28;20330;-42
2022/12/02 05:25:24;;;;;;;4.75;2.28;;;26.70;92.60;;;;;;5119642;28;20312;-49
2022/12/02 05:27:51;;;;;;;8.55;2.22;;;26.70;92.60;;;;;;5113413;28;20027;-46
2022/12/02 05:30:17;;;;;;;7.03;1.90;;;26.70;92.60;;;;;;5122119;28;20023;-40
2022/12/02 05:32:44;;;;;;;4.88;2.00;;;26.70;92.60;;;;;;5103872;28;20051;-45
2022/12/02 05:35:10;;;;;;;5.18;2.00;;;26.70;92.60;;;;;;5104027;28;20322;-45
2022/12/02 05:37:37;;;;;;;6.63;1.73;;;26.60;92.60;;;;;;5123095;28;20308;-44
2022/12/02 05:40:04;;;;;;;4.40;1.75;;;26.60;92.60;;;;;;5126704;28;20027;-42
2022/12/02 05:42:30;;;;;;;5.22;1.98;;;26.60;92.60;;;;;;5121261;28;20019;-43
2022/12/02 05:45:00;;;;;;;5.20;1.42;;;26.70;92.60;;;;;;5115151;28;20312;-40
2022/12/02 05:47:32;;;;;;;4.40;1.70;;;26.60;92.50;;;;;;5128411;28;20237;-43
2022/12/02 05:50:00;;;;;;;3.83;1.85;;;26.60;92.50;;;;;;5128216;28;20080;-42
2022/12/02 05:52:28;;;;;;;4.03;1.48;;;26.60;92.50;;;;;;5124548;28;20076;-42
2022/12/02 05:54:57;;;;;;;3.05;1.80;;;26.60;92.50;;;;;;5123211;28;20406;-47
2022/12/02 05:57:26;;;;;;;4.60;1.58;;;26.60;92.50;;;;;;5116365;28;20242;-51
2022/12/02 06:00:13;;;;;;;6.32;1.60;;;26.60;92.50;;;;;;5118418;28;20047;-47
2022/12/02 06:02:53;;;;;;;2.53;1.40;;;26.60;92.40;;;;;;5126384;27;20368;-38
2022/12/02 06:05:29;;;;;;;3.50;1.50;;;26.60;92.30;;;;;;5127866;28;20331;-38
2022/12/02 06:08:00;;;;;;;4.63;1.40;;;26.60;92.30;;;;;;5107106;28;20051;-42
2022/12/02 06:10:30;;;;;;;4.93;1.40;;;26.50;92.20;;;;;;5107303;28;20342;-44
2022/12/02 06:13:15;;;;;;;4.35;1.65;;;26.50;92.10;;;;;;5114193;28;20090;-41
2022/12/02 06:15:42;;;;;;;4.00;1.40;;;26.50;92.10;;;;;;5093820;28;20020;-40
2022/12/02 06:18:17;;;;;;;3.75;1.30;;;26.50;92.00;;;;;;5108320;28;20048;-41
2022/12/02 06:20:45;;;;;;;2.97;1.38;;;26.50;92.00;;;;;;5113217;28;20015;-42
2022/12/02 06:23:15;;;;;;;1.88;1.10;;;26.40;91.90;;;;;;5116939;27;20044;-47
2022/12/02 06:25:42;;;;;;;2.55;1.30;;;26.50;92.00;;;;;;5119298;28;20022;-44
2022/12/02 06:28:37;;;;;;;2.40;1.40;;;26.40;91.90;;;;;;5120697;28;20043;-41
2022/12/02 06:31:16;;;;;;;5.05;1.70;;;26.40;91.90;;;;;;5127043;28;20076;-47
2022/12/02 06:33:45;;;;;;;4.60;1.20;;;26.40;91.80;;;;;;5127505;28;20028;-41
2022/12/02 06:36:17;;;;;;;3.58;1.15;;;26.40;91.70;;;;;;5121941;28;20075;-44
2022/12/02 06:39:14;;;;;;;7.13;1.20;;;26.40;91.70;;;;;;5106844;28;20324;-45
2022/12/02 06:41:41;;;;;;;3.40;1.00;;;26.40;91.70;;;;;;5106643;28;20042;-43
2022/12/02 06:47:33;;;;;;;2.42;1.20;;;26.30;91.70;;;;;;5106664;28;20024;-43
2022/12/02 06:50:06;;;;;;;3.97;1.23;;;26.30;91.70;;;;;;5120566;28;20024;-42
2022/12/02 06:52:37;;;;;;;2.20;1.05;;;26.30;91.70;;;;;;5123514;28;20018;-46
2022/12/02 06:55:29;;;;;;;3.03;1.00;;;26.30;91.60;;;;;;5106715;28;20036;-43
2022/12/02 06:58:00;;;;;;;2.15;1.00;;;26.20;91.70;;;;;;5115330;28;20211;-43
2022/12/02 07:00:26;;;;;;;2.45;0.90;;;26.30;91.70;;;;;;5113698;28;20109;-44
2022/12/02 07:02:53;;;;;;;1.80;1.00;;;26.30;91.70;;;;;;5123617;27;20299;-48
2022/12/02 07:05:21;;;;;;;2.58;1.10;;;26.30;91.70;;;;;;5121643;27;20082;-46
2022/12/02 07:07:48;;;;;;;4.20;1.25;;;26.30;91.70;;;;;;5108577;28;20059;-42
2022/12/02 07:10:29;;;;;;;4.45;1.15;;;26.20;91.60;;;;;;5127110;28;20061;-41
2022/12/02 07:12:59;;;;;;;4.13;1.13;;;26.20;91.60;;;;;;5126266;28;20027;-44
2022/12/02 07:15:32;;;;;;;6.72;1.30;;;26.20;91.60;;;;;;5118382;28;20043;-47
2022/12/02 07:18:12;;;;;;;6.50;1.20;;;26.20;91.80;;;;;;5107822;27;20054;-43
2022/12/02 07:20:41;;;;;;;2.28;1.20;;;26.20;91.50;;;;;;5111702;27;20196;-41
2022/12/02 07:23:17;;;;;;;1.98;1.20;;;26.20;91.50;;;;;;5126306;28;20099;-43
2022/12/02 07:25:54;;;;;;;2.03;1.27;;;26.20;91.50;;;;;;5126123;28;20020;-46
2022/12/02 07:28:43;;;;;;;2.20;1.00;;;26.20;91.50;;;;;;5107124;28;20108;-44
2022/12/02 07:31:27;;;;;;;2.95;1.00;;;26.10;91.40;;;;;;5105731;28;20019;-47
2022/12/02 07:33:54;;;;;;;2.15;1.10;;;26.20;91.40;;;;;;5105805;28;20035;-44
2022/12/02 07:36:20;;;;;;;2.05;1.08;;;26.10;91.40;;;;;;5105366;28;20043;-46
2022/12/02 07:38:47;;;;;;;3.40;1.17;;;26.10;91.40;;;;;;5105594;28;20036;-42
2022/12/02 07:41:14;;;;;;;1.45;1.13;;;26.10;91.30;;;;;;5105502;28;20091;-43
2022/12/02 07:43:41;;;;;;;1.77;1.02;;;26.10;91.30;;;;;;5105574;28;20169;-46
2022/12/02 07:46:07;;;;;;;1.67;1.20;;;26.10;91.30;;;;;;5109698;27;20036;-49
2022/12/02 07:48:34;;;;;;;3.00;1.13;;;26.20;91.30;;;;;;5108425;28;20031;-43
2022/12/02 07:51:00;;;;;;;2.90;1.08;;;26.10;91.20;;;;;;5104966;28;20263;-53
2022/12/02 07:53:27;;;;;;;1.02;0.90;;;26.10;91.20;;;;;;5105411;28;20024;-51
2022/12/02 07:55:53;;;;;;;2.97;1.20;;;26.10;91.20;;;;;;5117040;28;20200;-43
2022/12/02 07:58:20;;;;;;;1.67;1.10;;;26.10;91.10;;;;;;5125558;28;20126;-45
2022/12/02 08:00:46;;;;;;;2.67;1.27;;;26.10;91.10;;;;;;5125472;28;20354;-45
2022/12/02 08:03:13;;;;;;;2.40;1.02;;;26.10;91.40;;;;;;5125148;28;20099;-43
2022/12/02 08:05:39;;;;;;;1.73;1.17;;;26.10;91.20;;;;;;5125297;28;20275;-42
2022/12/02 08:08:06;;;;;;;2.20;1.10;;;26.10;91.20;;;;;;5125315;28;20023;-44
2022/12/02 08:10:32;;;;;;;2.95;1.00;;;26.10;91.20;;;;;;5125334;28;20042;-49
2022/12/02 08:12:59;;;;;;;3.33;1.10;;;26.10;91.10;;;;;;5125161;28;20011;-49
2022/12/02 08:15:25;;;;;;;1.83;1.10;;;26.00;91.40;;;;;;5125306;28;20029;-43
2022/12/02 08:17:52;;;;;;;2.85;1.23;;;26.00;91.20;;;;;;5125291;28;20087;-45
2022/12/02 08:20:19;;;;;;;5.40;1.40;;;26.00;91.10;;;;;;5125103;28;20024;-41
2022/12/02 08:22:45;;;;;;;3.40;1.08;;;26.00;91.20;;;;;;5125390;28;20027;-42
2022/12/02 08:25:12;;;;;;;2.83;1.10;;;26.00;91.10;;;;;;5125614;28;20170;-45
2022/12/02 08:27:39;;;;;;;3.78;1.00;;;26.00;91.10;;;;;;5124985;28;20222;-48
2022/12/02 08:30:09;;;;;;;2.05;1.08;;;26.00;91.10;;;;;;5125379;28;20045;-41
2022/12/02 08:32:36;;;;;;;4.68;0.90;;;25.90;91.10;;;;;;5124984;28;20072;-48
2022/12/02 08:35:03;;;;;;;2.67;0.90;;;25.90;91.10;;;;;;5125240;28;20111;-49
2022/12/02 08:37:29;;;;;;;2.05;1.00;;;25.90;91.00;;;;;;5122401;28;20050;-44
2022/12/02 08:39:56;;;;;;;37.05;2.47;;;25.90;91.00;;;;;;5110170;28;20032;-46
2022/12/02 08:42:22;;;;;;;1.20;0.85;;;25.90;91.00;;;;;;5122041;27;20016;-49
2022/12/02 08:44:49;;;;;;;3.35;0.90;;;25.90;91.00;;;;;;5110486;28;20023;-46
2022/12/02 08:47:15;;;;;;;3.13;1.10;;;25.90;91.00;;;;;;5111093;28;20028;-44
2022/12/02 08:49:42;;;;;;;3.17;0.90;;;25.90;91.00;;;;;;5125942;27;20019;-40
2022/12/02 08:52:08;;;;;;;1.80;1.00;;;25.90;91.00;;;;;;5109921;28;20034;-41
2022/12/02 08:54:35;;;;;;;3.03;1.10;;;25.90;91.00;;;;;;5125212;28;20069;-45
2022/12/02 08:57:02;;;;;;;2.78;1.25;;;25.90;90.90;;;;;;5124607;28;20196;-42
2022/12/02 08:59:28;;;;;;;1.05;0.80;;;25.80;90.90;;;;;;5124437;28;20051;-44
2022/12/02 09:01:55;;;;;;;4.40;0.95;;;25.80;90.90;;;;;;5122632;28;20020;-46
2022/12/02 09:04:22;;;;;;;2.03;0.90;;;25.80;90.90;;;;;;5110031;28;20036;-44
2022/12/02 09:06:48;;;;;;;4.03;0.82;;;25.80;90.80;;;;;;5119127;27;20031;-46
2022/12/02 09:09:16;;;;;;;5.45;0.93;;;25.80;91.20;;;;;;5119149;28;20083;-46
2022/12/02 09:11:42;;;;;;;3.72;0.88;;;25.70;90.90;;;;;;5114524;28;20044;-48
2022/12/02 09:14:09;;;;;;;2.53;1.10;;;25.80;90.90;;;;;;5121950;28;20015;-46
2022/12/02 09:16:35;;;;;;;1.40;0.82;;;25.70;90.80;;;;;;5109921;28;20331;-46
2022/12/02 09:19:02;;;;;;;2.50;0.88;;;25.70;90.90;;;;;;5116870;28;20345;-41
2022/12/02 09:21:28;;;;;;;2.05;0.90;;;25.70;90.80;;;;;;5105535;28;20335;-43
2022/12/02 09:23:55;;;;;;;3.70;0.80;;;25.70;90.90;;;;;;5104191;28;20040;-48
2022/12/02 09:26:21;;;;;;;2.80;1.10;;;25.70;90.90;;;;;;5115940;28;20020;-42
2022/12/02 09:28:48;;;;;;;2.65;1.20;;;25.70;91.00;;;;;;5120159;28;20085;-40
2022/12/02 09:31:14;;;;;;;2.22;0.80;;;25.60;90.90;;;;;;5108622;28;20053;-44
2022/12/02 09:33:41;;;;;;;2.78;1.00;;;25.60;90.80;;;;;;5107705;28;20028;-40
2022/12/02 09:36:08;;;;;;;2.92;1.08;;;25.60;90.80;;;;;;5119607;28;20032;-41
2022/12/02 09:38:34;;;;;;;1.65;0.85;;;25.60;90.70;;;;;;5111738;28;20058;-43
2022/12/02 09:41:01;;;;;;;2.88;1.13;;;25.60;90.80;;;;;;5119560;28;20039;-44
2022/12/02 09:43:28;;;;;;;4.53;1.15;;;25.60;90.90;;;;;;5103735;28;20036;-44
2022/12/02 09:45:55;;;;;;;5.03;1.23;;;25.50;90.90;;;;;;5117872;28;20024;-44
2022/12/02 09:48:22;;;;;;;3.97;1.13;;;25.50;91.00;;;;;;5124066;28;20326;-40
2022/12/02 09:50:50;;;;;;;3.13;1.33;;;25.50;91.30;;;;;;5123721;28;20083;-47
2022/12/02 09:53:19;;;;;;;3.95;1.13;;;25.50;91.10;;;;;;5124150;28;20028;-42
2022/12/02 09:55:46;;;;;;;4.45;1.42;;;25.50;91.10;;;;;;5124061;28;20019;-48
2022/12/02 09:58:17;;;;;;;13.20;1.75;;;25.50;91.20;;;;;;5123924;28;20020;-47
2022/12/02 10:00:45;;;;;;;6.38;1.65;;;25.50;91.20;;;;;;5121179;28;20055;-43
2022/12/02 10:03:17;;;;;;;4.38;1.48;;;25.50;91.20;;;;;;5118838;28;20047;-42
2022/12/02 10:05:44;;;;;;;5.97;1.85;;;25.50;91.30;;;;;;5123858;28;20039;-40
2022/12/02 10:08:16;;;;;;;2.90;1.45;;;25.50;91.30;;;;;;5115712;28;20071;-40
2022/12/02 10:10:43;;;;;;;;;;;25.50;91.30;;;;;;5112967;28;20039;-40
2022/12/02 10:13:19;;;;;;;6.72;1.40;;;25.40;91.30;;;;;;5099876;28;19904;-46
2022/12/02 10:15:45;;;;;;;3.65;1.30;;;25.40;91.40;;;;;;5103484;28;20032;-40
2022/12/02 10:18:22;;;;;;;6.00;1.33;;;25.40;91.40;;;;;;5103006;28;20055;-43
2022/12/02 10:20:49;;;;;;;4.68;1.10;;;25.40;91.40;;;;;;5103425;28;20036;-46
2022/12/02 10:23:23;;;;;;;7.03;1.40;;;25.40;91.50;;;;;;5103288;28;20093;-46
2022/12/02 10:26:16;;;;;;;4.03;1.25;;;25.40;91.50;;;;;;5120182;28;20039;-50
2022/12/02 10:28:57;;;;;;;;;;;25.40;91.50;;;;;;5105631;27;20224;-39
2022/12/02 10:31:23;;;;;;;4.20;1.38;;;25.40;91.40;;;;;;5115219;28;19915;-49
2022/12/02 10:33:56;;;;;;;5.43;1.15;;;25.40;91.60;;;;;;5125831;28;20050;-41
2022/12/02 10:36:39;;;;;;;4.22;1.52;;;25.40;91.50;;;;;;5127076;28;20031;-44
2022/12/02 10:39:20;;;;;;;5.18;1.42;;;25.30;91.50;;;;;;5114804;28;20024;-40
2022/12/02 10:42:07;;;;;;;4.65;1.23;;;25.40;91.50;;;;;;5127091;28;20031;-41
2022/12/02 10:44:44;;;;;;;4.07;1.60;;;25.30;91.50;;;;;;5111522;28;20040;-40
2022/12/02 10:47:22;;;;;;;2.95;1.27;;;25.30;91.50;;;;;;5110230;28;20024;-40
2022/12/02 10:49:57;;;;;;;6.72;1.38;;;25.40;91.60;;;;;;5117044;28;20202;-41
2022/12/02 10:52:27;;;;;;;3.97;1.30;;;25.40;91.60;;;;;;5119649;28;20075;-44
2022/12/02 10:54:56;;;;;;;9.15;1.60;;;25.30;91.50;;;;;;5116194;28;20032;-40
2022/12/02 10:57:31;;;;;;;8.93;1.40;;;25.30;91.60;;;;;;5126668;28;20030;-44
2022/12/02 11:00:01;;;;;;;8.77;1.38;;;25.30;91.60;;;;;;5126663;28;20404;-42
2022/12/02 11:02:45;;;;;;;10.00;1.90;;;25.30;91.60;;;;;;5126651;28;20021;-40
2022/12/02 11:05:18;;;;;;;4.65;1.33;;;25.30;91.50;;;;;;5103440;28;20180;-44
2022/12/02 11:08:17;;;;;;;5.00;1.48;;;25.30;91.60;;;;;;5110023;28;20054;-40
2022/12/02 11:10:47;;;;;;;7.20;1.40;;;25.30;91.60;;;;;;5115123;28;20366;-40
2022/12/02 11:13:13;;;;;;;8.55;1.85;;;25.20;91.60;;;;;;5126726;28;20109;-40
2022/12/02 11:15:45;;;;;;;4.22;1.50;;;25.20;91.60;;;;;;5126676;28;20019;-43
2022/12/02 11:18:37;;;;;;;9.98;2.10;;;25.20;91.60;;;;;;5125781;28;20213;-53
2022/12/02 11:21:07;;;;;;;7.57;2.10;;;25.20;91.60;;;;;;5112833;28;20031;-41
2022/12/02 11:23:34;;;;;;;7.18;1.92;;;25.20;91.60;;;;;;5110797;28;20304;-40
2022/12/02 11:26:03;;;;;;;7.63;2.10;;;25.20;91.60;;;;;;5105891;28;20020;-45
2022/12/02 11:28:31;;;;;;;358.52;20.63;;;25.20;91.50;;;;;;5111246;28;20103;-51
2022/12/02 11:31:19;;;;;;;19.38;2.72;;;25.20;91.50;;;;;;5126346;28;20323;-42
2022/12/02 11:33:54;;;;;;;6.95;1.70;;;25.20;91.50;;;;;;5088467;28;20078;-41
2022/12/02 11:36:26;;;;;;;9.88;1.83;;;25.20;91.50;;;;;;5105803;28;20020;-41
2022/12/02 11:38:53;;;;;;;11.52;1.70;;;25.20;91.40;;;;;;5105263;28;20219;-45
2022/12/02 11:41:24;;;;;;;8.18;1.40;;;25.20;91.30;;;;;;5105422;28;20026;-41
2022/12/02 11:43:59;;;;;;;6.03;1.25;;;25.20;91.20;;;;;;5106019;28;20039;-46
2022/12/02 11:46:47;;;;;;;7.32;1.42;;;25.20;91.30;;;;;;5105775;28;20213;-42
2022/12/02 11:49:27;;;;;;;5.57;1.58;;;25.20;91.20;;;;;;5105733;28;20042;-44
2022/12/02 11:52:12;;;;;;;5.40;1.30;;;25.30;91.30;;;;;;5123829;28;20236;-43
2022/12/02 11:54:41;;;;;;;6.15;1.83;;;25.30;91.40;;;;;;5116812;28;20034;-42
2022/12/02 11:57:20;;;;;;;7.60;2.22;;;25.30;91.30;;;;;;5122460;28;20023;-42
2022/12/02 11:59:48;;;;;;;3.15;1.60;;;25.40;91.40;;;;;;5105174;28;20224;-41
2022/12/02 12:02:18;;;;;;;4.47;1.60;;;25.50;91.40;;;;;;5123731;28;20024;-45
2022/12/02 12:04:45;;;;;;;3.38;1.25;;;25.50;91.30;;;;;;5123052;28;20255;-44
2022/12/02 12:07:13;;;;;;;5.65;1.60;;;25.60;91.20;;;;;;5105620;28;20035;-43
2022/12/02 12:09:39;;;;;;;4.63;1.48;;;25.60;91.30;;;;;;5114128;28;20054;-42
2022/12/02 12:12:18;;;;;;;4.63;1.45;;;25.70;91.20;;;;;;5125224;28;20031;-40
2022/12/02 12:15:05;;;;;;;3.95;1.70;;;25.70;91.10;;;;;;5125208;28;20086;-43
2022/12/02 12:17:39;;;;;;;5.80;1.30;;;25.80;91.20;;;;;;5113569;28;20050;-42
2022/12/02 12:20:25;;;;;;;5.15;1.58;;;25.80;91.00;;;;;;5109899;28;20028;-43
2022/12/02 12:22:52;;;;;;;5.20;1.42;;;25.80;90.90;;;;;;5113730;28;20032;-39
2022/12/02 12:25:41;;;;;;;4.20;1.38;;;25.90;91.10;;;;;;5133321;27;20018;-44
2022/12/02 12:28:34;;;;;;;4.57;1.42;;;25.90;91.00;;;;;;5114921;28;20312;-42
2022/12/02 12:31:02;;;;;;;5.43;1.50;;;25.90;90.90;;;;;;5123928;28;20211;-40
2022/12/02 12:33:29;;;;;;;7.47;1.67;;;26.00;91.00;;;;;;5124443;28;20051;-40
2022/12/02 12:35:57;;;;;;;5.57;1.67;;;26.00;90.90;;;;;;5124143;28;20185;-41
2022/12/02 12:38:27;;;;;;;6.82;1.80;;;26.10;90.90;;;;;;5119648;28;20016;-49
2022/12/02 12:40:54;;;;;;;9.95;2.10;;;26.10;91.00;;;;;;5118357;28;20091;-45
2022/12/02 12:43:22;;;;;;;6.05;1.85;;;26.00;90.90;;;;;;5124084;28;20022;-42
2022/12/02 12:45:48;;;;;;;11.32;1.80;;;26.10;90.90;;;;;;5118589;28;20427;-41
2022/12/02 12:48:15;;;;;;;11.45;3.47;;;26.10;90.90;;;;;;5128002;27;20030;-44
2022/12/02 12:50:41;;;;;;;18.27;4.10;;;26.10;90.90;;;;;;5144912;27;20074;-40
2022/12/02 12:53:08;;;;;;;12.43;4.03;;;26.10;90.90;;;;;;5112109;28;20016;-46
2022/12/02 12:55:34;;;;;;;22.52;5.72;;;26.20;91.00;;;;;;5104605;28;20212;-42
2022/12/02 12:58:01;;;;;;;20.70;5.00;;;26.10;90.90;;;;;;5109194;28;20211;-42
2022/12/02 13:00:27;;;;;;;19.52;4.30;;;26.20;91.00;;;;;;5115563;28;20331;-43
2022/12/02 13:02:54;;;;;;;16.50;3.67;;;26.20;90.90;;;;;;5124420;28;20058;-44
2022/12/02 13:05:20;;;;;;;20.65;4.25;;;26.20;90.90;;;;;;5124794;28;20223;-43